Aviation Digital Data Service (ADDS)

Output produced by METARs form (2058 UTC 18 September 2018)
found at http://www.aviationweather.gov/metar/data/
 
KHEZ 181956Z AUTO 00000KT 10SM FEW120 34/22 A2993 RMK AO2 SLP135 T03440217
KHEZ 181756Z AUTO 27004KT 10SM -RA FEW036 BKN048 BKN065 31/24 A2998 RMK AO2 RAB38 SLP151 P0000 60000 T03060239 10344 20228 58009
KHEZ 181656Z AUTO 00000KT 10SM CLR 33/23 A2999 RMK AO2 SLP158 T03330228
KHEZ 181556Z AUTO 05003KT 10SM CLR 33/23 A3000 RMK AO2 SLP161 T03280228
KHEZ 181456Z AUTO 00000KT 10SM CLR 31/24 A3000 RMK AO2 SLP161 T03110239
KHEZ 181356Z AUTO 00000KT 10SM CLR 28/24 A3000 RMK AO2 SLP161 T02830239
KHEZ 181256Z AUTO 00000KT 10SM CLR 24/23 RMK AO2 SLPNO T02390228 $
KHEZ 181156Z AUTO 00000KT 10SM CLR 23/22 A2999 RMK AO2 SLP157 T02280222 10244 20228 53009
KHEZ 181056Z AUTO 00000KT 10SM CLR 23/22 A2998 RMK AO2 SLP152 T02280222
KHEZ 180956Z AUTO 00000KT 10SM CLR 23/22 A2997 RMK AO2 SLP149 T02330222
KHEZ 180856Z AUTO 00000KT 10SM CLR 23/22 A2997 RMK AO2 SLP148 T02280222 56002
KHEZ 180756Z AUTO 00000KT 10SM CLR 24/23 A2997 RMK AO2 SLP148 T02390228
KHEZ 180656Z AUTO 00000KT 10SM CLR 24/23 A2997 RMK AO2 SLP148 T02390228
KHEZ 180556Z AUTO 00000KT 10SM CLR 24/23 A2997 RMK AO2 SLP150 T02440233 10300 20244 51004
KHEZ 180456Z AUTO 16003KT 10SM CLR 24/23 A2997 RMK AO2 SLP149 T02440233 403500222
KHEZ 180356Z AUTO 00000KT 10SM CLR 26/24 A2996 RMK AO2 SLP147 T02560239 TSNO
KHEZ 180256Z AUTO 00000KT 9SM CLR 26/24 A2996 RMK AO2 SLP145 T02610244 53015 TSNO
KHEZ 180156Z AUTO 00000KT 10SM CLR 27/24 A2994 RMK AO2 SLP140 T02670244
KHEZ 180056Z AUTO 00000KT 10SM CLR 28/25 A2992 RMK AO2 SLP132 T02830250 TSNO
KHEZ 172156Z AUTO 06005KT 10SM CLR 34/23 A2991 RMK AO2 SLP128 T03440228
KHEZ 172056Z AUTO VRB03KT 10SM CLR 34/22 A2992 RMK AO2 SLP131 T03440217 56017
KHEZ 171956Z AUTO VRB05KT 10SM CLR 34/22 A2993 RMK AO2 SLP136 T03390222
KHEZ 171856Z AUTO 32005KT 10SM CLR 33/22 A2995 RMK AO2 SLP142 T03280222
KHEZ 171756Z AUTO VRB04KT 8SM CLR 33/23 A2997 RMK AO2 SLP148 T03330228 10333 20222 58007
KHEZ 171656Z AUTO 30006KT 10SM CLR 33/22 A2998 RMK AO2 SLP153 T03330222
KHEZ 171556Z AUTO 24004KT 10SM CLR 32/23 A2999 RMK AO2 SLP157 T03220233
KHEZ 171456Z AUTO 00000KT 10SM CLR 30/24 A2999 RMK AO2 SLP155 T03000239 51015
KHEZ 171356Z AUTO 00000KT 10SM CLR 27/24 A2997 RMK AO2 SLP151 T02670239
KHEZ 171256Z AUTO 00000KT 10SM CLR 24/23 A2996 RMK AO2 SLP146 T02440228
KHEZ 171156Z AUTO 00000KT 9SM CLR 22/22 A2994 RMK AO2 SLP140 T02220217 10244 20222 53012
KHEZ 171056Z AUTO 00000KT 10SM CLR 22/22 A2993 RMK AO2 SLP137 T02220217
KHEZ 170956Z AUTO 00000KT 8SM CLR 23/22 A2991 RMK AO2 SLP130 T02280222
KHEZ 170856Z AUTO 00000KT 10SM CLR 23/23 A2991 RMK AO2 SLP128 T02330228 58001
KHEZ 170756Z AUTO 00000KT 10SM CLR 23/23 A2991 RMK AO2 SLP128 T02330228
KHEZ 170656Z AUTO 00000KT 10SM CLR 24/23 A2991 RMK AO2 SLP129 T02390233
KHEZ 170556Z AUTO 00000KT 10SM CLR 24/23 A2991 RMK AO2 SLP129 T02440233 10294 20239 50001
KHEZ 170356Z AUTO 00000KT 10SM CLR 26/24 A2991 RMK AO2 SLP128 T02560239
KHEZ 170256Z AUTO 00000KT 10SM CLR 26/24 A2991 RMK AO2 SLP128 T02560239 51009
KHEZ 170156Z AUTO 00000KT 10SM FEW060 27/24 A2990 RMK AO2 SLP126 T02670239
KHEZ 170056Z AUTO 00000KT 10SM FEW060 27/24 A2989 RMK AO2 SLP123 T02720244
KHEZ 162356Z AUTO 00000KT 10SM CLR 29/25 A2988 RMK AO2 RAB25E45 SLP118 P0000 60000 T02940250 10344 20294 53005
KHEZ 162256Z AUTO 00000KT 10SM CLR 33/23 A2986 RMK AO2 SLP113 T03330233
KHEZ 162156Z AUTO 04004KT 10SM CLR 34/23 A2986 RMK AO2 SLP110 T03390228
KHEZ 162056Z AUTO 36004KT 10SM CLR 34/23 A2986 RMK AO2 SLP114 T03390228 56021
KHEZ 161956Z AUTO 36005KT 10SM CLR 34/23 A2988 RMK AO2 SLP118 T03390228
KHEZ 161856Z AUTO 35007KT 10SM FEW044 33/23 A2990 RMK AO2 SLP126 T03330228
KHEZ 161756Z AUTO 02006KT 10SM CLR 33/24 A2993 RMK AO2 SLP135 T03280239 10328 20222 58007
KHEZ 161656Z AUTO 33004KT 10SM CLR 32/24 A2994 RMK AO2 SLP141 T03170244
KHEZ 161556Z AUTO 00000KT 10SM CLR 31/24 A2995 RMK AO2 SLP144 T03060239
KHEZ 161456Z AUTO 34003KT 10SM CLR 28/24 A2995 RMK AO2 SLP142 T02830239 51011
KHEZ 161356Z AUTO VRB03KT 10SM CLR 26/23 A2994 RMK AO2 SLP138 T02610233
KHEZ 161256Z AUTO 00000KT 10SM CLR 23/22 A2993 RMK AO2 SLP136 T02330222
KHEZ 161156Z AUTO 00000KT 9SM CLR 22/22 A2992 RMK AO2 SLP131 T02220217 10244 20222 53004
KHEZ 161056Z AUTO 00000KT 9SM CLR 22/22 A2990 RMK AO2 SLP126 T02220222
KHEZ 160956Z AUTO 00000KT 9SM CLR 23/23 A2990 RMK AO2 SLP125 T02280228
KHEZ 160856Z AUTO 00000KT 10SM CLR 24/23 A2990 RMK AO2 SLP126 T02390228 56008
KHEZ 160756Z AUTO 00000KT 10SM CLR 24/23 A2991 RMK AO2 SLP128 T02390233
KHEZ 160656Z AUTO 00000KT 10SM CLR 23/23 A2991 RMK AO2 SLP130 T02330228
KHEZ 160556Z AUTO 00000KT 10SM CLR 24/24 A2993 RMK AO2 SLP134 T02440239 10300 20239 58008
KHEZ 160456Z AUTO 00000KT 10SM CLR 24/24 A2994 RMK AO2 SLP140 T02440239 403390228
KHEZ 160356Z AUTO 00000KT 10SM CLR 24/24 A2996 RMK AO2 SLP145 T02440239
KHEZ 160256Z AUTO 00000KT 10SM CLR 26/24 A2995 RMK AO2 SLP143 T02560244 53017
KHEZ 160156Z AUTO 00000KT 10SM CLR 26/24 A2993 RMK AO2 SLP137 T02610244
KHEZ 160056Z AUTO 00000KT 10SM CLR 27/24 A2991 RMK AO2 SLP129 T02720239
KHEZ 152356Z AUTO 00000KT 10SM CLR 30/24 A2990 RMK AO2 SLP126 T03000239 10339 20300 55004
KHEZ 152256Z AUTO 03006KT 10SM CLR 33/23 A2990 RMK AO2 SLP124 T03280228
KHEZ 152156Z AUTO 05007KT 10SM CLR 34/23 A2990 RMK AO2 SLP127 T03390233